Terminal Aerodrome Forecast
Issued by NWS

Home | Current Version | Previous Version | Graphics & Text | Print | Product List | Glossary On
Versions: 1 2 3 4 5 6 7 8 9 10 11 12 13 14 15 16 17 18 19 20 21 22 23 24 25 26 27 28 29 30 31
000
FTUS43 KLOT 232000 AAA
TAFMDW
TAF AMD
KMDW 232000Z 2320/2418 21012G20KT P6SM SCT025 BKN200
     FM240000 21007KT P6SM SCT025 OVC150
     FM240900 36008KT 6SM BR VCSH OVC050
     FM241300 36013G22KT 4SM -RA BR OVC015 PROB30 2415/2417 1SM
      -SNRA OVC008
     FM241700 34016G28KT 1SM -SN BR OVC006=

USA.gov is the U.S. government's official web portal to all federal, state and local government web resources and services.